Reek, Netherlands
Current Conditions -  °F | °C
As of 4:00 AM on Friday 28 Nov 2014 (Local Time) from EHVK Reporting Station
Haze Haze  
Wind Chill: 37°   Ceiling: 700
Heat Index: 43°   Visibility: 3mi
Dew Point: 41°   Wind: 9mph
Humidity: 93%   Direction: 110°ESE
Pressure: 29.74"   Gusts: NA
Location:  51.75°N, 5.68°E
Report Text: EHVK 280300Z AUTO 11008KT 5000 BR BKN007 06/05 Q1007 GRN
Loading
Personal Weather Stations






























Interactive Weather Map New forecast layout! Learn more

10-Day Weather Forecast

Advertisements
Track Severe Weather on mobile